Godbout, Canada
Current Conditions -  °F | °C
As of 5:00 PM on Tuesday 21 Oct 2014 (Local Time) from CYBC Reporting Station
Overcast Overcast  
Wind Chill: 38°   Ceiling: 9500
Heat Index: 43°   Visibility: 9mi
Dew Point: 36°   Wind: 8mph
Humidity: 76%   Direction: 250°WSW
Pressure: 30.21"   Gusts: NA
Location:  49.32°N, 67.6°W
Report Text: CYBC 212100Z AUTO 25007KT 9SM OVC095 06/02 A3021 RMK SLP230
Loading
Personal Weather Stations






























Interactive Weather Map
Tropical Storm Tracking
New forecast layout! Learn more

10-Day Weather Forecast

Advertisements
Track Severe Weather on mobile